createdAt,value
2022-11-03T00:01:22.645Z,100376.66
2022-11-03T00:07:15.517Z,100363.28
2022-11-03T00:13:02.586Z,100372.94
2022-11-03T00:18:49.448Z,100384.47
2022-11-03T00:24:38.903Z,100376.59
2022-11-03T00:30:25.776Z,100380.47
2022-11-03T00:36:26.597Z,100378.97
2022-11-03T00:42:13.397Z,100378.91
2022-11-03T00:48:19.086Z,100392.31
2022-11-03T00:54:07.588Z,100354.25
2022-11-03T00:59:55.826Z,100351.16
2022-11-03T01:06:02.732Z,100347.00
2022-11-03T01:12:01.634Z,100348.81
2022-11-03T01:17:48.231Z,100332.91
2022-11-03T01:23:36.014Z,100329.09
2022-11-03T01:29:22.606Z,100342.75
2022-11-03T01:35:17.064Z,100334.28
2022-11-03T01:41:07.256Z,100325.66
2022-11-03T01:47:01.544Z,100294.22
2022-11-03T01:52:59.766Z,100288.88
2022-11-03T01:58:49.743Z,100281.13
2022-11-03T02:04:36.709Z,100257.06
2022-11-03T02:10:24.747Z,100238.16
2022-11-03T02:16:12.987Z,100253.66
2022-11-03T02:22:25.214Z,100218.59
2022-11-03T02:28:23.479Z,100199.50
2022-11-03T02:34:17.933Z,100209.88
2022-11-03T02:40:13.957Z,100196.25
2022-11-03T02:46:03.866Z,100171.97
2022-11-03T02:52:00.449Z,100177.63
2022-11-03T02:58:01.302Z,100167.31
2022-11-03T03:03:53.996Z,100168.75
2022-11-03T03:09:43.056Z,100100.97
2022-11-03T03:15:55.920Z,100108.16
2022-11-03T03:21:43.894Z,100051.03
2022-11-03T03:27:33.926Z,100053.56
2022-11-03T03:33:21.679Z,100038.38
2022-11-03T03:39:12.520Z,100033.19
2022-11-03T03:45:00.358Z,100027.91
2022-11-03T03:50:49.694Z,99999.56
2022-11-03T03:56:42.358Z,99988.00
2022-11-03T04:02:28.883Z,99968.59
2022-11-03T04:08:17.791Z,99970.66
2022-11-03T04:14:23.002Z,99983.91
2022-11-03T04:20:31.785Z,99973.59
2022-11-03T04:26:22.818Z,99951.03
2022-11-03T04:32:17.689Z,99937.00
2022-11-03T04:38:20.623Z,99934.94
2022-11-03T04:44:15.122Z,99917.69
2022-11-03T04:50:02.281Z,99908.00
2022-11-03T04:55:51.674Z,99907.06
2022-11-03T05:01:38.911Z,99877.66
2022-11-03T05:07:36.024Z,99876.41
2022-11-03T05:13:27.460Z,99863.41
2022-11-03T05:19:20.853Z,99862.50
2022-11-03T05:25:34.456Z,99856.50
2022-11-03T05:31:27.171Z,99857.28
2022-11-03T05:37:26.417Z,99822.22
2022-11-03T05:43:15.015Z,99815.94
2022-11-03T05:49:03.038Z,99816.13
2022-11-03T05:54:52.314Z,99816.59
2022-11-03T06:00:47.130Z,99793.53
2022-11-03T06:06:38.478Z,99806.47
2022-11-03T06:12:26.235Z,99794.66
2022-11-03T06:18:25.709Z,99792.31
2022-11-03T06:24:15.160Z,99805.44
2022-11-03T06:30:19.707Z,99827.34
2022-11-03T06:36:16.461Z,99834.81
2022-11-03T06:42:16.562Z,99813.31
2022-11-03T06:48:08.575Z,99823.59
2022-11-03T06:53:59.090Z,99811.84
2022-11-03T06:59:57.089Z,99797.38
2022-11-03T07:06:27.489Z,99779.69
2022-11-03T07:12:18.693Z,99807.22
2022-11-03T07:18:27.027Z,99823.75
2022-11-03T07:24:19.072Z,99811.72
2022-11-03T07:30:20.129Z,99815.09
2022-11-03T07:36:15.914Z,99819.97
2022-11-03T07:42:21.294Z,99825.41
2022-11-03T07:48:33.796Z,99817.00
2022-11-03T07:54:30.356Z,99796.19
2022-11-03T08:00:22.167Z,99801.53
2022-11-03T08:06:10.240Z,99797.03
2022-11-03T08:11:58.543Z,99796.38
2022-11-03T08:17:45.684Z,99793.91
2022-11-03T08:23:33.104Z,99812.63
2022-11-03T08:29:21.493Z,99817.94
2022-11-03T08:35:08.439Z,99815.00
2022-11-03T08:40:56.182Z,99817.72
2022-11-03T08:46:45.099Z,99803.41
2022-11-03T08:52:31.848Z,99794.66
2022-11-03T08:58:18.708Z,99803.41
2022-11-03T09:04:05.602Z,99801.88
2022-11-03T09:10:28.353Z,99793.09
2022-11-03T09:16:18.078Z,99790.59
2022-11-03T09:22:05.655Z,99774.50
2022-11-03T09:27:55.466Z,99762.19
2022-11-03T09:33:42.363Z,99765.47
2022-11-03T09:39:29.123Z,99756.88
2022-11-03T09:45:15.947Z,99763.28
2022-11-03T09:51:05.347Z,99745.59
2022-11-03T09:56:52.177Z,99742.16
2022-11-03T10:02:40.437Z,99735.31
2022-11-03T10:08:33.579Z,99743.28
2022-11-03T10:14:23.487Z,99744.84
2022-11-03T10:20:13.212Z,99755.59
2022-11-03T10:26:11.242Z,99730.00
2022-11-03T10:32:01.531Z,99727.50
2022-11-03T10:37:48.365Z,99720.59
2022-11-03T10:43:44.252Z,99723.47
2022-11-03T10:49:43.230Z,99717.19
2022-11-03T10:55:31.993Z,99709.03
2022-11-03T11:01:18.825Z,99701.06
2022-11-03T11:07:19.256Z,99676.38
2022-11-03T11:13:18.864Z,99690.41
2022-11-03T11:19:05.637Z,99685.59
2022-11-03T11:24:58.318Z,99689.19
2022-11-03T11:30:55.841Z,99698.84
2022-11-03T11:37:03.789Z,99673.72
2022-11-03T11:43:02.869Z,99672.03
2022-11-03T11:49:04.894Z,99668.94
2022-11-03T11:54:54.301Z,99662.34
2022-11-03T12:01:03.245Z,99651.94
2022-11-03T12:06:52.717Z,99655.28
2022-11-03T12:12:39.442Z,99664.78
2022-11-03T12:18:50.197Z,99660.34
2022-11-03T12:24:57.843Z,99638.75
2022-11-03T12:30:44.466Z,99634.59
2022-11-03T12:36:31.492Z,99635.38
2022-11-03T12:42:21.786Z,99622.84
2022-11-03T12:48:08.802Z,99609.00
2022-11-03T12:53:57.618Z,99605.94
2022-11-03T12:59:44.398Z,99606.88
2022-11-03T13:05:32.580Z,99638.19
2022-11-03T13:11:44.487Z,99644.13
2022-11-03T13:17:59.371Z,99638.63
2022-11-03T13:23:45.271Z,99643.97
2022-11-03T13:29:36.430Z,99649.47
2022-11-03T13:35:23.907Z,99622.06
2022-11-03T13:41:12.188Z,99507.63
2022-11-03T13:46:59.304Z,99567.25
2022-11-03T13:52:46.902Z,99581.91
2022-11-03T14:04:54.509Z,99611.53
2022-11-03T14:10:41.441Z,99622.72
2022-11-03T14:16:28.914Z,99605.97
2022-11-03T14:22:19.525Z,99580.47
2022-11-03T14:28:06.537Z,99586.91
2022-11-03T14:33:53.638Z,99576.00
2022-11-03T14:39:42.581Z,99578.81
2022-11-03T14:45:34.187Z,99577.19
2022-11-03T14:51:37.265Z,99567.22
2022-11-03T14:57:24.181Z,99559.41
2022-11-03T15:03:13.288Z,99566.06
2022-11-03T15:09:00.514Z,99575.81
2022-11-03T15:14:52.329Z,99577.03
2022-11-03T15:20:40.043Z,99585.16
2022-11-03T15:26:29.021Z,99584.34
2022-11-03T15:32:17.013Z,99583.66
2022-11-03T15:38:06.364Z,99590.34
2022-11-03T15:43:53.924Z,99593.94
2022-11-03T15:49:40.677Z,99600.81
2022-11-03T15:55:27.563Z,99598.03
2022-11-03T16:01:14.364Z,99605.00
2022-11-03T16:07:07.803Z,99599.69
2022-11-03T16:12:55.510Z,99602.56
2022-11-03T16:18:42.384Z,99610.50
2022-11-03T16:24:34.860Z,99611.13
2022-11-03T16:30:23.854Z,99613.00
2022-11-03T16:36:10.577Z,99610.94
2022-11-03T16:42:05.372Z,99615.31
2022-11-03T16:47:57.909Z,99627.59
2022-11-03T16:53:44.955Z,99632.28
2022-11-03T16:59:31.990Z,99623.31
2022-11-03T17:05:21.039Z,99626.38
2022-11-03T17:11:07.866Z,99643.25
2022-11-03T17:16:54.860Z,99661.44
2022-11-03T17:22:41.684Z,99654.06
2022-11-03T17:28:28.746Z,99653.28
2022-11-03T17:54:57.281Z,99643.66
2022-11-03T18:08:44.639Z,99655.84
2022-11-03T18:15:08.512Z,99662.94
2022-11-03T18:22:12.526Z,99655.28
2022-11-03T18:29:20.834Z,99645.25
2022-11-03T18:35:22.908Z,99652.88
2022-11-03T18:41:55.433Z,99654.34
2022-11-03T18:47:45.815Z,99644.94
2022-11-03T18:53:34.277Z,99654.25
2022-11-03T18:59:52.147Z,99648.66
2022-11-03T19:12:39.805Z,99637.69
2022-11-03T19:18:28.678Z,99630.19
2022-11-03T19:24:15.692Z,99625.88
2022-11-03T19:30:06.244Z,99619.38
2022-11-03T19:35:53.389Z,99620.00
2022-11-03T19:42:09.588Z,99601.31
2022-11-03T19:48:23.697Z,99603.81
2022-11-03T19:54:30.557Z,99605.69
2022-11-03T20:00:36.646Z,99597.09
2022-11-03T20:06:53.741Z,99598.91
2022-11-03T20:13:20.563Z,99599.03
2022-11-03T20:19:30.495Z,99589.25
2022-11-03T20:25:50.752Z,99587.75
2022-11-03T20:32:09.793Z,99574.72
2022-11-03T20:38:09.272Z,99572.84
2022-11-03T20:44:00.266Z,99570.41
2022-11-03T20:50:11.562Z,99580.09
2022-11-03T20:56:04.477Z,99564.09
2022-11-03T21:02:53.815Z,99566.63
2022-11-03T21:33:16.495Z,99585.38
2022-11-03T21:39:07.318Z,99574.69
2022-11-03T21:45:52.955Z,99575.13
2022-11-03T21:58:50.396Z,99563.63
2022-11-03T22:04:38.775Z,99575.47
2022-11-03T22:11:07.377Z,99564.00
2022-11-03T22:16:58.157Z,99568.63
2022-11-03T22:23:14.877Z,99569.84
2022-11-03T22:36:32.582Z,99559.69
2022-11-03T22:42:39.495Z,99540.31
2022-11-03T22:48:42.660Z,99558.41
2022-11-03T22:54:35.665Z,99548.13
2022-11-03T23:00:22.624Z,99549.81
2022-11-03T23:06:26.272Z,99562.28
2022-11-03T23:12:13.460Z,99556.44
2022-11-03T23:18:22.977Z,99571.13
2022-11-03T23:24:28.250Z,99578.50
2022-11-03T23:30:17.175Z,99591.69
2022-11-03T23:36:19.979Z,99593.94
2022-11-03T23:42:07.288Z,99594.78
2022-11-03T23:48:15.002Z,99597.25
2022-11-03T23:54:03.647Z,99608.72
2022-11-03T23:59:52.518Z,99611.25
